CXA1012 ZGGG-ZSAM
Flight info
| Callsign | CXA1012 |
|---|---|
| Flight time | 0h 48m |
| Altitude | 25600 |
| Route | LMN9 LMN G471 XEBUL DCT NUVGA DCT VETIB W155 TEBON TEBON8X |
| Aircraft | A20N/M-SDE2E3FGHIRWXY/LB1 |
Departure
| Time | 2026-05-06 12:40 |
|---|---|
| Airport | Guangzhou Baiyun International Airport (ZGGG) |
Arrival
| Time | 2026-05-06 13:28 |
|---|---|
| Airport | Xiamen Gaoqi International Airport (ZSAM) |
| Time | Latitude | Longitude | Altitude | Speed | Heading |
|---|---|---|---|---|---|
| 2026-05-06 12:15 | 23.40045 | 113.32002 | 58 ft | 0 kts | 284° |
| 2026-05-06 12:29 | 23.40042 | 113.32015 | 51 ft | 3 kts | 284° |
| 2026-05-06 12:29 | 23.40037 | 113.32036 | 51 ft | 3 kts | 284° |
| 2026-05-06 12:30 | 23.40032 | 113.32058 | 51 ft | 3 kts | 284° |
| 2026-05-06 12:30 | 23.40027 | 113.32079 | 52 ft | 3 kts | 277° |
| 2026-05-06 12:30 | 23.40027 | 113.32098 | 53 ft | 3 kts | 230° |
| 2026-05-06 12:30 | 23.40034 | 113.32105 | 52 ft | 1 kts | 194° |
| 2026-05-06 12:31 | 23.40050 | 113.32109 | 54 ft | 2 kts | 194° |
| 2026-05-06 12:31 | 23.40053 | 113.32110 | 54 ft | 0 kts | 194° |
| 2026-05-06 12:33 | 23.40025 | 113.32100 | 53 ft | 12 kts | 196° |
| 2026-05-06 12:34 | 23.39911 | 113.32070 | 56 ft | 20 kts | 193° |
| 2026-05-06 12:34 | 23.39761 | 113.32029 | 52 ft | 23 kts | 194° |
| 2026-05-06 12:34 | 23.39681 | 113.31974 | 51 ft | 11 kts | 268° |
| 2026-05-06 12:34 | 23.39704 | 113.31866 | 55 ft | 18 kts | 284° |
| 2026-05-06 12:35 | 23.39728 | 113.31745 | 56 ft | 8 kts | 269° |
| 2026-05-06 12:35 | 23.39649 | 113.31700 | 52 ft | 20 kts | 188° |
| 2026-05-06 12:35 | 23.39494 | 113.31656 | 53 ft | 26 kts | 195° |
| 2026-05-06 12:35 | 23.39306 | 113.31605 | 56 ft | 30 kts | 191° |
| 2026-05-06 12:36 | 23.39101 | 113.31550 | 54 ft | 30 kts | 194° |
| 2026-05-06 12:36 | 23.38890 | 113.31493 | 56 ft | 32 kts | 194° |
| 2026-05-06 12:36 | 23.38685 | 113.31439 | 52 ft | 31 kts | 194° |
| 2026-05-06 12:36 | 23.38465 | 113.31379 | 53 ft | 34 kts | 193° |
| 2026-05-06 12:37 | 23.38226 | 113.31314 | 53 ft | 36 kts | 194° |
| 2026-05-06 12:37 | 23.37977 | 113.31247 | 57 ft | 38 kts | 194° |
| 2026-05-06 12:37 | 23.37711 | 113.31175 | 56 ft | 40 kts | 194° |
| 2026-05-06 12:37 | 23.37434 | 113.31103 | 52 ft | 42 kts | 193° |
| 2026-05-06 12:38 | 23.37197 | 113.31034 | 55 ft | 33 kts | 193° |
| 2026-05-06 12:38 | 23.36977 | 113.30977 | 51 ft | 21 kts | 193° |
| 2026-05-06 12:38 | 23.36940 | 113.30938 | 52 ft | 8 kts | 257° |
| 2026-05-06 12:38 | 23.36952 | 113.30857 | 55 ft | 14 kts | 282° |
| 2026-05-06 12:39 | 23.37000 | 113.30781 | 55 ft | 11 kts | 17° |
| 2026-05-06 12:39 | 23.37087 | 113.30806 | 51 ft | 2 kts | 14° |
| 2026-05-06 12:39 | 23.37091 | 113.30807 | 52 ft | 3 kts | 14° |
| 2026-05-06 12:39 | 23.37252 | 113.30850 | 55 ft | 62 kts | 14° |
| 2026-05-06 12:40 | 23.37943 | 113.31038 | 52 ft | 138 kts | 13° |
| 2026-05-06 12:40 | 23.39003 | 113.31327 | 458 ft | 160 kts | 15° |
| 2026-05-06 12:40 | 23.40085 | 113.31649 | 1205 ft | 163 kts | 16° |
| 2026-05-06 12:40 | 23.41197 | 113.31977 | 2001 ft | 174 kts | 16° |
| 2026-05-06 12:41 | 23.42479 | 113.32347 | 2467 ft | 211 kts | 15° |
| 2026-05-06 12:41 | 23.44005 | 113.32762 | 3218 ft | 238 kts | 14° |
| 2026-05-06 12:41 | 23.45677 | 113.33199 | 4277 ft | 254 kts | 13° |
| 2026-05-06 12:41 | 23.47410 | 113.33653 | 5614 ft | 257 kts | 12° |
| 2026-05-06 12:42 | 23.49159 | 113.34116 | 6914 ft | 261 kts | 12° |
| 2026-05-06 12:42 | 23.50940 | 113.34589 | 8115 ft | 266 kts | 11° |
| 2026-05-06 12:42 | 23.52755 | 113.35071 | 9306 ft | 271 kts | 11° |
| 2026-05-06 12:42 | 23.54600 | 113.35561 | 10423 ft | 276 kts | 10° |
| 2026-05-06 12:43 | 23.56490 | 113.36011 | 11438 ft | 281 kts | 6° |
| 2026-05-06 12:43 | 23.58406 | 113.36372 | 12483 ft | 286 kts | 6° |
| 2026-05-06 12:43 | 23.60382 | 113.36757 | 13521 ft | 292 kts | 9° |
| 2026-05-06 12:43 | 23.62252 | 113.37707 | 14454 ft | 305 kts | 35° |
| 2026-05-06 12:44 | 23.63662 | 113.39474 | 15317 ft | 316 kts | 60° |
| 2026-05-06 12:44 | 23.64421 | 113.41757 | 16101 ft | 329 kts | 76° |
| 2026-05-06 12:44 | 23.64882 | 113.44298 | 16456 ft | 354 kts | 81° |
| 2026-05-06 12:44 | 23.65309 | 113.47048 | 16727 ft | 380 kts | 81° |
| 2026-05-06 12:45 | 23.65811 | 113.49970 | 17004 ft | 402 kts | 79° |
| 2026-05-06 12:45 | 23.66393 | 113.52990 | 17719 ft | 409 kts | 78° |
| 2026-05-06 12:45 | 23.67557 | 113.59132 | 19182 ft | 418 kts | 84° |
| 2026-05-06 12:46 | 23.67721 | 113.62308 | 19865 ft | 422 kts | 92° |
| 2026-05-06 12:46 | 23.67594 | 113.65522 | 20557 ft | 426 kts | 94° |
| 2026-05-06 12:46 | 23.67461 | 113.68771 | 21233 ft | 431 kts | 94° |
| 2026-05-06 12:46 | 23.67337 | 113.71929 | 21875 ft | 435 kts | 94° |
| 2026-05-06 12:47 | 23.67207 | 113.75245 | 22537 ft | 440 kts | 93° |
| 2026-05-06 12:47 | 23.67076 | 113.78565 | 23186 ft | 445 kts | 93° |
| 2026-05-06 12:47 | 23.66943 | 113.81949 | 23800 ft | 449 kts | 93° |
| 2026-05-06 12:47 | 23.66806 | 113.85363 | 24386 ft | 452 kts | 93° |
| 2026-05-06 12:48 | 23.66667 | 113.88797 | 24973 ft | 455 kts | 93° |
| 2026-05-06 12:48 | 23.66526 | 113.92263 | 25384 ft | 459 kts | 93° |
| 2026-05-06 12:48 | 23.66383 | 113.95755 | 25524 ft | 459 kts | 93° |
| 2026-05-06 12:48 | 23.66240 | 113.99241 | 25556 ft | 460 kts | 93° |
| 2026-05-06 12:49 | 23.66097 | 114.02730 | 25559 ft | 460 kts | 93° |
| 2026-05-06 12:49 | 23.65953 | 114.06211 | 25557 ft | 460 kts | 93° |
| 2026-05-06 12:49 | 23.65808 | 114.09691 | 25559 ft | 460 kts | 93° |
| 2026-05-06 12:49 | 23.65661 | 114.13177 | 25557 ft | 460 kts | 93° |
| 2026-05-06 12:50 | 23.65514 | 114.16665 | 25558 ft | 460 kts | 93° |
| 2026-05-06 12:50 | 23.65367 | 114.20154 | 25558 ft | 460 kts | 93° |
| 2026-05-06 12:50 | 23.65218 | 114.23642 | 25555 ft | 461 kts | 93° |
| 2026-05-06 12:50 | 23.65163 | 114.27087 | 25553 ft | 460 kts | 86° |
| 2026-05-06 12:51 | 23.65716 | 114.30521 | 25556 ft | 460 kts | 72° |
| 2026-05-06 12:51 | 23.66942 | 114.33729 | 25554 ft | 458 kts | 59° |
| 2026-05-06 12:51 | 23.68776 | 114.36550 | 25557 ft | 455 kts | 46° |
| 2026-05-06 12:51 | 23.71133 | 114.38851 | 25557 ft | 450 kts | 33° |
| 2026-05-06 12:52 | 23.73718 | 114.40696 | 25561 ft | 448 kts | 29° |
| 2026-05-06 12:52 | 23.76368 | 114.42515 | 25557 ft | 450 kts | 30° |
| 2026-05-06 12:52 | 23.78971 | 114.44410 | 25558 ft | 450 kts | 32° |
| 2026-05-06 12:52 | 23.81528 | 114.46389 | 25560 ft | 451 kts | 33° |
| 2026-05-06 12:53 | 23.84057 | 114.48421 | 25557 ft | 451 kts | 34° |
| 2026-05-06 12:53 | 23.85720 | 114.49779 | 25554 ft | 451 kts | 34° |
| 2026-05-06 12:53 | 23.89073 | 114.52540 | 25557 ft | 451 kts | 34° |
| 2026-05-06 12:53 | 23.90729 | 114.53907 | 25558 ft | 451 kts | 34° |
| 2026-05-06 12:54 | 23.93238 | 114.55976 | 25559 ft | 451 kts | 34° |
| 2026-05-06 12:54 | 23.95739 | 114.58039 | 25561 ft | 451 kts | 34° |
| 2026-05-06 12:54 | 23.98247 | 114.60107 | 25561 ft | 451 kts | 34° |
| 2026-05-06 12:54 | 24.00750 | 114.62171 | 25561 ft | 451 kts | 34° |
| 2026-05-06 12:55 | 24.03257 | 114.64240 | 25558 ft | 451 kts | 34° |
| 2026-05-06 12:55 | 24.05763 | 114.66309 | 25561 ft | 451 kts | 34° |
| 2026-05-06 12:55 | 24.08272 | 114.68380 | 25549 ft | 451 kts | 34° |
| 2026-05-06 12:55 | 24.10775 | 114.70449 | 25560 ft | 451 kts | 34° |
| 2026-05-06 12:56 | 24.13281 | 114.72520 | 25561 ft | 451 kts | 34° |
| 2026-05-06 12:56 | 24.15783 | 114.74589 | 25564 ft | 451 kts | 34° |
| 2026-05-06 12:56 | 24.18288 | 114.76662 | 25565 ft | 451 kts | 34° |
| 2026-05-06 12:56 | 24.20761 | 114.78710 | 25564 ft | 451 kts | 34° |
| 2026-05-06 12:57 | 24.23255 | 114.80808 | 25561 ft | 452 kts | 38° |
| 2026-05-06 12:57 | 24.25421 | 114.83316 | 25552 ft | 456 kts | 51° |
| 2026-05-06 12:57 | 24.27041 | 114.86311 | 25564 ft | 458 kts | 65° |
| 2026-05-06 12:57 | 24.28021 | 114.89628 | 25565 ft | 460 kts | 78° |
| 2026-05-06 12:58 | 24.28312 | 114.93112 | 25563 ft | 460 kts | 92° |
| 2026-05-06 12:58 | 24.27973 | 114.96590 | 25560 ft | 459 kts | 100° |
| 2026-05-06 12:58 | 24.27428 | 115.00049 | 25556 ft | 459 kts | 101° |
| 2026-05-06 12:58 | 24.26926 | 115.03505 | 25553 ft | 459 kts | 99° |
| 2026-05-06 12:59 | 24.26509 | 115.06986 | 25557 ft | 459 kts | 97° |
| 2026-05-06 12:59 | 24.26158 | 115.10467 | 25558 ft | 460 kts | 96° |
| 2026-05-06 12:59 | 24.25841 | 115.13952 | 25557 ft | 460 kts | 96° |
| 2026-05-06 12:59 | 24.25538 | 115.17436 | 25559 ft | 460 kts | 96° |
| 2026-05-06 13:00 | 24.25238 | 115.20933 | 25554 ft | 460 kts | 96° |
| 2026-05-06 13:00 | 24.24941 | 115.24375 | 25547 ft | 460 kts | 96° |
| 2026-05-06 13:00 | 24.24638 | 115.27865 | 25558 ft | 461 kts | 96° |
| 2026-05-06 13:00 | 24.24333 | 115.31355 | 25556 ft | 460 kts | 96° |
| 2026-05-06 13:01 | 24.24026 | 115.34851 | 25556 ft | 460 kts | 96° |
| 2026-05-06 13:01 | 24.23718 | 115.38348 | 25556 ft | 461 kts | 96° |
| 2026-05-06 13:01 | 24.23410 | 115.41835 | 25565 ft | 460 kts | 96° |
| 2026-05-06 13:01 | 24.23103 | 115.45323 | 25567 ft | 460 kts | 96° |
| 2026-05-06 13:02 | 24.22837 | 115.48830 | 25566 ft | 461 kts | 95° |
| 2026-05-06 13:02 | 24.22604 | 115.52331 | 25564 ft | 461 kts | 95° |
| 2026-05-06 13:02 | 24.22374 | 115.55836 | 25562 ft | 461 kts | 95° |
| 2026-05-06 13:02 | 24.22139 | 115.59342 | 25560 ft | 461 kts | 95° |
| 2026-05-06 13:03 | 24.21898 | 115.62847 | 25557 ft | 461 kts | 95° |
| 2026-05-06 13:03 | 24.21653 | 115.66348 | 25558 ft | 461 kts | 95° |
| 2026-05-06 13:03 | 24.21406 | 115.69856 | 25555 ft | 461 kts | 95° |
| 2026-05-06 13:03 | 24.21157 | 115.73360 | 25557 ft | 461 kts | 95° |
| 2026-05-06 13:04 | 24.20908 | 115.76855 | 25556 ft | 461 kts | 95° |
| 2026-05-06 13:04 | 24.20657 | 115.80361 | 25557 ft | 461 kts | 95° |
| 2026-05-06 13:04 | 24.20406 | 115.83861 | 25558 ft | 461 kts | 95° |
| 2026-05-06 13:04 | 24.20155 | 115.87362 | 25558 ft | 461 kts | 95° |
| 2026-05-06 13:05 | 24.19902 | 115.90859 | 25558 ft | 461 kts | 95° |
| 2026-05-06 13:05 | 24.19649 | 115.94359 | 25557 ft | 461 kts | 95° |
| 2026-05-06 13:05 | 24.19399 | 115.97806 | 25558 ft | 461 kts | 95° |
| 2026-05-06 13:05 | 24.19144 | 116.01301 | 25559 ft | 460 kts | 95° |
| 2026-05-06 13:06 | 24.18889 | 116.04799 | 25560 ft | 461 kts | 95° |
| 2026-05-06 13:06 | 24.18632 | 116.08303 | 25562 ft | 460 kts | 95° |
| 2026-05-06 13:06 | 24.18375 | 116.11796 | 25564 ft | 460 kts | 95° |
| 2026-05-06 13:06 | 24.18116 | 116.15293 | 25564 ft | 460 kts | 95° |
| 2026-05-06 13:07 | 24.17858 | 116.18788 | 25565 ft | 463 kts | 95° |
| 2026-05-06 13:07 | 24.17591 | 116.22376 | 25567 ft | 481 kts | 95° |
| 2026-05-06 13:07 | 24.17313 | 116.26099 | 25570 ft | 497 kts | 95° |
| 2026-05-06 13:07 | 24.17026 | 116.29926 | 25567 ft | 508 kts | 95° |
| 2026-05-06 13:08 | 24.16737 | 116.33785 | 25568 ft | 509 kts | 95° |
| 2026-05-06 13:08 | 24.16447 | 116.37648 | 25574 ft | 508 kts | 95° |
| 2026-05-06 13:08 | 24.16156 | 116.41510 | 25574 ft | 509 kts | 95° |
| 2026-05-06 13:08 | 24.15877 | 116.45316 | 25576 ft | 509 kts | 94° |
| 2026-05-06 13:09 | 24.15696 | 116.49190 | 25574 ft | 509 kts | 92° |
| 2026-05-06 13:09 | 24.15567 | 116.53068 | 25573 ft | 509 kts | 92° |
| 2026-05-06 13:09 | 24.15441 | 116.56948 | 25573 ft | 509 kts | 92° |
| 2026-05-06 13:09 | 24.15306 | 116.60815 | 25577 ft | 509 kts | 92° |
| 2026-05-06 13:10 | 24.15159 | 116.64688 | 25504 ft | 509 kts | 92° |
| 2026-05-06 13:10 | 24.15006 | 116.68557 | 25284 ft | 507 kts | 92° |
| 2026-05-06 13:10 | 24.14850 | 116.72415 | 25055 ft | 505 kts | 92° |
| 2026-05-06 13:10 | 24.14692 | 116.76256 | 24789 ft | 504 kts | 92° |
| 2026-05-06 13:11 | 24.14534 | 116.80086 | 24624 ft | 502 kts | 93° |
| 2026-05-06 13:11 | 24.14375 | 116.83905 | 24582 ft | 502 kts | 92° |
| 2026-05-06 13:11 | 24.14222 | 116.87719 | 24581 ft | 502 kts | 92° |
| 2026-05-06 13:11 | 24.14165 | 116.91491 | 24570 ft | 501 kts | 90° |
| 2026-05-06 13:12 | 24.14165 | 116.95323 | 24458 ft | 490 kts | 90° |
| 2026-05-06 13:12 | 24.14172 | 116.98949 | 24192 ft | 476 kts | 90° |
| 2026-05-06 13:12 | 24.14170 | 117.02554 | 23440 ft | 472 kts | 90° |
| 2026-05-06 13:12 | 24.14156 | 117.06127 | 22605 ft | 466 kts | 90° |
| 2026-05-06 13:13 | 24.14136 | 117.09655 | 21795 ft | 460 kts | 90° |
| 2026-05-06 13:13 | 24.14113 | 117.13128 | 20946 ft | 451 kts | 90° |
| 2026-05-06 13:13 | 24.14088 | 117.16524 | 19851 ft | 443 kts | 90° |
| 2026-05-06 13:13 | 24.14063 | 117.19863 | 18774 ft | 435 kts | 90° |
| 2026-05-06 13:14 | 24.14038 | 117.23152 | 17645 ft | 428 kts | 90° |
| 2026-05-06 13:14 | 24.14012 | 117.26374 | 16521 ft | 419 kts | 90° |
| 2026-05-06 13:14 | 24.13987 | 117.29537 | 15417 ft | 412 kts | 90° |
| 2026-05-06 13:14 | 24.13961 | 117.32645 | 14363 ft | 405 kts | 90° |
| 2026-05-06 13:15 | 24.13935 | 117.35711 | 13279 ft | 399 kts | 90° |
| 2026-05-06 13:15 | 24.13910 | 117.38714 | 12213 ft | 391 kts | 90° |
| 2026-05-06 13:15 | 24.13885 | 117.41658 | 11256 ft | 382 kts | 91° |
| 2026-05-06 13:15 | 24.13861 | 117.44501 | 10711 ft | 364 kts | 91° |
| 2026-05-06 13:16 | 24.13840 | 117.47211 | 10218 ft | 350 kts | 90° |
| 2026-05-06 13:16 | 24.14228 | 117.49769 | 10052 ft | 334 kts | 70° |
| 2026-05-06 13:16 | 24.15342 | 117.51913 | 9900 ft | 318 kts | 50° |
| 2026-05-06 13:16 | 24.16798 | 117.53688 | 9532 ft | 311 kts | 47° |
| 2026-05-06 13:17 | 24.18255 | 117.55426 | 9162 ft | 305 kts | 47° |
| 2026-05-06 13:17 | 24.19654 | 117.57092 | 9014 ft | 301 kts | 47° |
| 2026-05-06 13:17 | 24.21095 | 117.58810 | 8661 ft | 310 kts | 47° |
| 2026-05-06 13:17 | 24.22550 | 117.60548 | 8355 ft | 306 kts | 47° |
| 2026-05-06 13:18 | 24.23974 | 117.62254 | 7983 ft | 301 kts | 47° |
| 2026-05-06 13:18 | 24.25383 | 117.63943 | 7555 ft | 298 kts | 47° |
| 2026-05-06 13:18 | 24.26775 | 117.65612 | 7137 ft | 296 kts | 47° |
| 2026-05-06 13:18 | 24.28158 | 117.67270 | 6718 ft | 293 kts | 47° |
| 2026-05-06 13:19 | 24.29527 | 117.68913 | 6303 ft | 291 kts | 48° |
| 2026-05-06 13:19 | 24.30871 | 117.70528 | 5886 ft | 288 kts | 48° |
| 2026-05-06 13:19 | 24.32212 | 117.72140 | 5504 ft | 283 kts | 47° |
| 2026-05-06 13:19 | 24.33531 | 117.73727 | 5136 ft | 279 kts | 47° |
| 2026-05-06 13:20 | 24.34815 | 117.75273 | 4973 ft | 269 kts | 47° |
| 2026-05-06 13:20 | 24.36043 | 117.76751 | 4941 ft | 254 kts | 47° |
| 2026-05-06 13:20 | 24.37195 | 117.78137 | 4942 ft | 238 kts | 47° |
| 2026-05-06 13:20 | 24.38277 | 117.79439 | 4939 ft | 224 kts | 47° |
| 2026-05-06 13:21 | 24.39288 | 117.80678 | 4933 ft | 212 kts | 53° |
| 2026-05-06 13:21 | 24.39856 | 117.82107 | 4864 ft | 203 kts | 82° |
| 2026-05-06 13:21 | 24.39963 | 117.83626 | 4730 ft | 200 kts | 86° |
| 2026-05-06 13:21 | 24.40066 | 117.85170 | 4454 ft | 205 kts | 85° |
| 2026-05-06 13:22 | 24.40178 | 117.86719 | 4297 ft | 201 kts | 85° |
| 2026-05-06 13:22 | 24.40292 | 117.88234 | 4146 ft | 198 kts | 85° |
| 2026-05-06 13:22 | 24.40398 | 117.89633 | 3974 ft | 197 kts | 85° |
| 2026-05-06 13:22 | 24.40512 | 117.91128 | 3796 ft | 196 kts | 85° |
| 2026-05-06 13:23 | 24.40673 | 117.92609 | 3613 ft | 195 kts | 76° |
| 2026-05-06 13:23 | 24.41162 | 117.93984 | 3433 ft | 194 kts | 60° |
| 2026-05-06 13:23 | 24.41898 | 117.95215 | 3276 ft | 191 kts | 53° |
| 2026-05-06 13:23 | 24.42684 | 117.96325 | 3199 ft | 182 kts | 51° |
| 2026-05-06 13:24 | 24.43451 | 117.97396 | 3095 ft | 175 kts | 52° |
| 2026-05-06 13:24 | 24.44203 | 117.98451 | 2946 ft | 179 kts | 52° |
| 2026-05-06 13:24 | 24.44972 | 117.99528 | 2721 ft | 179 kts | 52° |
| 2026-05-06 13:24 | 24.45735 | 118.00599 | 2480 ft | 173 kts | 52° |
| 2026-05-06 13:25 | 24.46454 | 118.01607 | 2271 ft | 166 kts | 52° |
| 2026-05-06 13:25 | 24.47183 | 118.02630 | 2057 ft | 168 kts | 52° |
| 2026-05-06 13:25 | 24.47871 | 118.03593 | 1849 ft | 154 kts | 52° |
| 2026-05-06 13:25 | 24.48507 | 118.04486 | 1643 ft | 142 kts | 52° |
| 2026-05-06 13:26 | 24.49095 | 118.05310 | 1450 ft | 133 kts | 53° |
| 2026-05-06 13:26 | 24.49642 | 118.06077 | 1301 ft | 122 kts | 53° |
| 2026-05-06 13:26 | 24.50161 | 118.06807 | 1133 ft | 121 kts | 53° |
| 2026-05-06 13:26 | 24.50670 | 118.07521 | 985 ft | 120 kts | 53° |
| 2026-05-06 13:27 | 24.51190 | 118.08248 | 827 ft | 120 kts | 53° |
| 2026-05-06 13:27 | 24.51708 | 118.08978 | 670 ft | 121 kts | 54° |
| 2026-05-06 13:27 | 24.52221 | 118.09697 | 530 ft | 121 kts | 53° |
| 2026-05-06 13:27 | 24.52743 | 118.10428 | 374 ft | 121 kts | 54° |
| 2026-05-06 13:28 | 24.53269 | 118.11166 | 201 ft | 121 kts | 53° |
| 2026-05-06 13:28 | 24.53787 | 118.11898 | 62 ft | 119 kts | 53° |
| 2026-05-06 13:28 | 24.54255 | 118.12561 | 49 ft | 100 kts | 51° |
| 2026-05-06 13:28 | 24.54568 | 118.12991 | 51 ft | 44 kts | 53° |
| 2026-05-06 13:29 | 24.54670 | 118.13147 | 50 ft | 26 kts | 68° |
| 2026-05-06 13:29 | 24.54715 | 118.13355 | 50 ft | 28 kts | 86° |
| 2026-05-06 13:29 | 24.54646 | 118.13435 | 50 ft | 16 kts | 139° |
| 2026-05-06 13:29 | 24.54546 | 118.13493 | 50 ft | 16 kts | 202° |
| 2026-05-06 13:30 | 24.54467 | 118.13389 | 51 ft | 20 kts | 232° |
| 2026-05-06 13:30 | 24.54373 | 118.13257 | 52 ft | 24 kts | 231° |
| 2026-05-06 13:30 | 24.54261 | 118.13105 | 51 ft | 27 kts | 233° |
| 2026-05-06 13:30 | 24.54138 | 118.12933 | 52 ft | 30 kts | 231° |
| 2026-05-06 13:31 | 24.54007 | 118.12745 | 48 ft | 32 kts | 233° |
| 2026-05-06 13:31 | 24.53894 | 118.12585 | 56 ft | 1 kts | 231° |
| 2026-05-06 13:31 | 24.53868 | 118.12549 | 55 ft | 12 kts | 223° |
| 2026-05-06 13:31 | 24.53807 | 118.12553 | 54 ft | 0 kts | 142° |
| 2026-05-06 13:32 | 24.53790 | 118.12568 | 56 ft | 1 kts | 142° |
| 2026-05-06 13:32 | 24.53785 | 118.12572 | 57 ft | 0 kts | 142° |
| 2026-05-06 13:32 | 24.53779 | 118.12577 | 58 ft | 0 kts | 142° |